Time;durP1;ratioP1;P1;durP2;ratioP2;P2;SDS_P1;SDS_P2;PMS_P1;PMS_P2;Temp;Humidity;BMP_temperature;BMP_pressure;BME280_temperature;BME280_humidity;BME280_pressure;Samples;Min_cycle;Max_cycle;Signal;HPM_P1;HPM_P2
2021/08/13 00:01:05;;;;;;;13.75;2.25;;;;;;;15.39;60.49;100820.09;5075091;28;20652;-41
2021/08/13 00:03:32;;;;;;;8.90;2.00;;;;;;;15.40;60.69;100818.91;5078098;28;20055;-40
2021/08/13 00:05:58;;;;;;;11.18;1.88;;;;;;;15.36;60.72;100812.47;5071698;28;22077;-43
2021/08/13 00:08:25;;;;;;;8.88;2.55;;;;;;;15.33;61.01;100824.41;5076081;28;20044;-43
2021/08/13 00:10:56;;;;;;;12.05;2.88;;;;;;;15.27;61.14;100823.91;5059040;28;20148;-41
2021/08/13 00:13:23;;;;;;;16.98;3.63;;;;;;;15.24;61.51;100816.28;5075370;28;20032;-42
2021/08/13 00:15:49;;;;;;;14.55;2.53;;;;;;;15.23;61.33;100825.81;5075704;28;20059;-43
2021/08/13 00:18:16;;;;;;;12.38;3.35;;;;;;;15.20;61.61;100813.44;5075820;28;20059;-48
2021/08/13 00:20:43;;;;;;;8.35;3.13;;;;;;;15.17;61.84;100814.19;5076024;28;20062;-41
2021/08/13 00:23:10;;;;;;;15.48;4.03;;;;;;;15.17;61.87;100805.81;5058031;28;20047;-48
2021/08/13 00:25:37;;;;;;;11.45;2.85;;;;;;;15.08;62.25;100808.09;5074210;28;20500;-41
2021/08/13 00:28:04;;;;;;;11.80;3.35;;;;;;;15.02;62.89;100815.16;5076461;28;20052;-44
2021/08/13 00:30:31;;;;;;;11.45;2.85;;;;;;;15.02;62.92;100809.56;5074116;28;20040;-41
2021/08/13 00:32:58;;;;;;;11.27;2.90;;;;;;;14.99;63.21;100827.03;5076764;28;20085;-41
2021/08/13 00:35:25;;;;;;;15.48;3.65;;;;;;;14.99;63.53;100824.25;5075566;28;20055;-41
2021/08/13 00:37:52;;;;;;;12.43;3.08;;;;;;;14.93;63.77;100822.94;5075309;28;20078;-43
2021/08/13 00:40:18;;;;;;;12.00;3.50;;;;;;;14.96;63.63;100819.41;5076738;28;20602;-41
2021/08/13 00:42:45;;;;;;;15.75;3.72;;;;;;;14.95;63.92;100812.25;5077005;28;20485;-41
2021/08/13 00:45:12;;;;;;;15.48;4.57;;;;;;;14.94;63.83;100807.84;5057231;28;20061;-41
2021/08/13 00:47:39;;;;;;;10.88;1.77;;;;;;;14.89;64.27;100807.34;5075950;28;20054;-41
2021/08/13 00:50:06;;;;;;;10.35;2.67;;;;;;;14.86;64.26;100817.25;5078738;28;20047;-47
2021/08/13 00:52:33;;;;;;;9.38;2.72;;;;;;;14.83;64.29;100820.78;5075781;28;20048;-41
2021/08/13 00:55:00;;;;;;;14.50;3.00;;;;;;;14.77;64.58;100811.16;5076048;28;20044;-41
2021/08/13 00:57:27;;;;;;;13.45;3.38;;;;;;;14.77;64.58;100825.09;5074367;28;20052;-42
2021/08/13 00:59:55;;;;;;;16.73;3.80;;;;;;;14.72;64.82;100817.00;5078300;28;20044;-41
2021/08/13 01:02:22;;;;;;;16.48;5.10;;;;;;;14.73;64.90;100815.03;5073948;28;20051;-41
2021/08/13 01:04:49;;;;;;;16.90;5.03;;;;;;;14.71;64.75;100807.06;5056096;28;20044;-41
2021/08/13 01:07:17;;;;;;;15.45;4.25;;;;;;;14.70;64.68;100807.41;5076286;28;20051;-42
2021/08/13 01:09:44;;;;;;;13.05;4.80;;;;;;;14.68;64.91;100799.44;5075793;28;20405;-43
2021/08/13 01:12:41;;;;;;;18.17;5.20;;;;;;;14.62;65.73;100804.50;5076075;28;20047;-41
2021/08/13 01:15:11;;;;;;;10.38;3.80;;;;;;;14.59;65.49;100796.06;5075492;28;20463;-47
2021/08/13 01:17:48;;;;;;;19.67;3.50;;;;;;;14.54;66.34;100807.53;5074405;28;20051;-42
2021/08/13 01:20:24;;;;;;;11.30;4.82;;;;;;;14.52;65.57;100802.34;5073918;28;20040;-41
2021/08/13 01:23:06;;;;;;;12.70;4.03;;;;;;;14.52;66.32;100793.16;5075350;28;20477;-43
2021/08/13 01:25:42;;;;;;;10.93;4.00;;;;;;;14.51;66.28;100792.34;5072818;28;20052;-45
2021/08/13 01:28:37;;;;;;;8.73;2.92;;;;;;;14.49;67.01;100777.19;5073452;28;20073;-42
2021/08/13 01:31:18;;;;;;;10.80;3.80;;;;;;;14.47;67.16;100791.50;5035871;28;20570;-43
2021/08/13 01:33:49;;;;;;;13.35;3.05;;;;;;;14.47;66.40;100790.69;5078216;28;20044;-40
2021/08/13 01:36:18;;;;;;;27.70;5.18;;;;;;;14.49;66.30;100786.34;5073532;28;20036;-40
2021/08/13 01:38:45;;;;;;;12.70;3.38;;;;;;;14.48;66.45;100790.31;5074570;28;20044;-42
2021/08/13 01:41:14;;;;;;;11.27;3.45;;;;;;;14.43;66.45;100790.63;5075365;28;20058;-47
2021/08/13 01:43:43;;;;;;;14.38;4.28;;;;;;;14.41;66.93;100794.94;5076528;28;20097;-41
2021/08/13 01:46:13;;;;;;;17.08;4.30;;;;;;;14.35;67.08;100799.22;5073397;28;20040;-42
2021/08/13 01:48:40;;;;;;;13.45;4.82;;;;;;;14.36;66.91;100798.03;5074643;28;20821;-41
2021/08/13 01:51:14;;;;;;;13.13;4.00;;;;;;;14.40;66.97;100799.69;5075272;28;20052;-45
2021/08/13 01:53:43;;;;;;;13.15;4.13;;;;;;;14.38;67.20;100806.81;5058146;28;20054;-46
2021/08/13 01:56:11;;;;;;;12.25;3.95;;;;;;;14.38;67.29;100809.59;5074191;28;20044;-41
2021/08/13 01:58:39;;;;;;;16.35;4.75;;;;;;;14.38;67.26;100809.59;5077486;28;20035;-41
2021/08/13 02:01:06;;;;;;;18.80;4.30;;;;;;;14.37;67.05;100806.03;5075367;28;20044;-41
2021/08/13 02:03:36;;;;;;;22.77;6.22;;;;;;;14.33;67.41;100801.56;5056807;28;20051;-41
2021/08/13 02:06:04;;;;;;;11.38;3.03;;;;;;;14.29;67.57;100807.03;5072677;28;20586;-41
2021/08/13 02:08:32;;;;;;;15.77;3.75;;;;;;;14.27;67.58;100805.81;5074126;28;20059;-45
2021/08/13 02:10:59;;;;;;;15.00;5.00;;;;;;;14.27;67.88;100803.81;5078243;28;20855;-43
2021/08/13 02:13:26;;;;;;;15.38;4.00;;;;;;;14.25;67.70;100799.78;5078393;28;20118;-40
2021/08/13 02:16:00;;;;;;;21.02;3.88;;;;;;;14.22;68.19;100801.31;5078359;28;20062;-43
2021/08/13 02:18:30;;;;;;;13.45;4.53;;;;;;;14.23;68.13;100788.22;5079148;28;20524;-41
2021/08/13 02:21:02;;;;;;;19.15;4.80;;;;;;;14.21;68.17;100788.59;5078603;28;20032;-41
2021/08/13 02:23:29;;;;;;;12.50;3.67;;;;;;;14.20;68.23;100784.19;5079386;28;22042;-44
2021/08/13 02:25:56;;;;;;;15.65;4.50;;;;;;;14.15;68.28;100792.84;5080352;28;20040;-45
2021/08/13 02:28:23;;;;;;;14.23;5.30;;;;;;;14.15;68.35;100786.47;5077211;28;20040;-46
2021/08/13 02:30:50;;;;;;;14.93;3.30;;;;;;;14.11;68.47;100777.25;5077703;28;20047;-42
2021/08/13 02:33:17;;;;;;;15.65;3.22;;;;;;;14.08;68.54;100769.63;5079110;28;20143;-49
2021/08/13 02:35:46;;;;;;;10.52;3.85;;;;;;;14.03;68.90;100767.94;5076307;28;20566;-41
2021/08/13 02:38:19;;;;;;;15.45;3.00;;;;;;;13.96;69.34;100763.03;5078705;28;20055;-44
2021/08/13 02:40:56;;;;;;;9.13;2.80;;;;;;;13.99;69.15;100756.75;5079481;28;20052;-44
2021/08/13 02:43:28;;;;;;;17.60;5.05;;;;;;;13.98;69.07;100763.47;5079089;28;20048;-41
2021/08/13 02:45:59;;;;;;;25.38;5.13;;;;;;;13.95;69.03;100764.19;5078059;28;20044;-41
2021/08/13 02:48:27;;;;;;;12.20;2.72;;;;;;;13.96;68.88;100756.66;5076581;28;21260;-47
2021/08/13 02:50:55;;;;;;;18.85;4.05;;;;;;;13.95;69.04;100761.41;5078369;28;20498;-42
2021/08/13 02:53:24;;;;;;;9.23;2.58;;;;;;;13.93;69.13;100765.75;5078456;28;20143;-43
2021/08/13 02:56:17;;;;;;;19.75;4.50;;;;;;;13.88;70.03;100766.84;5078564;28;20052;-46
2021/08/13 02:59:03;;;;;;;12.75;3.13;;;;;;;13.88;69.57;100766.84;5078604;28;20174;-46
2021/08/13 03:01:34;;;;;;;10.68;3.03;;;;;;;13.87;69.46;100770.78;5075399;28;20038;-41
2021/08/13 03:04:04;;;;;;;11.15;2.80;;;;;;;13.85;69.39;100767.56;5077676;28;20562;-41
2021/08/13 03:06:37;;;;;;;8.32;2.83;;;;;;;13.87;69.54;100770.78;5078866;28;20497;-41
2021/08/13 03:09:05;;;;;;;14.00;3.45;;;;;;;13.90;69.43;100774.81;5079277;28;20748;-45
2021/08/13 03:11:33;;;;;;;23.20;3.53;;;;;;;13.86;69.50;100769.19;5079869;28;20519;-40
2021/08/13 03:14:02;;;;;;;12.73;3.33;;;;;;;13.84;69.84;100765.19;5078025;28;20066;-41
2021/08/13 03:16:32;;;;;;;10.85;3.33;;;;;;;13.82;69.88;100773.88;5079743;28;20054;-50
2021/08/13 03:19:00;;;;;;;11.32;2.65;;;;;;;13.79;69.83;100777.38;5078809;28;20051;-46
2021/08/13 03:21:27;;;;;;;10.20;2.63;;;;;;;13.79;70.22;100774.59;5077736;28;20052;-41
2021/08/13 03:23:54;;;;;;;15.48;3.65;;;;;;;13.80;69.99;100772.63;5079427;28;20105;-42
2021/08/13 03:26:24;;;;;;;20.33;5.10;;;;;;;13.80;70.01;100769.84;5079105;28;20071;-40
2021/08/13 03:28:51;;;;;;;13.90;4.80;;;;;;;13.80;70.13;100767.06;5078340;28;20052;-46
2021/08/13 03:31:30;;;;;;;11.80;3.30;;;;;;;13.78;70.60;100774.97;5078908;28;20059;-47
2021/08/13 03:33:58;;;;;;;11.82;4.45;;;;;;;13.80;70.10;100776.22;5076198;28;20476;-43
2021/08/13 03:36:24;;;;;;;15.13;3.97;;;;;;;13.77;70.28;100776.13;5074143;28;20526;-40
2021/08/13 03:38:51;;;;;;;20.00;6.65;;;;;;;13.77;70.24;100781.69;5076917;28;20044;-44
2021/08/13 03:41:19;;;;;;;13.00;3.63;;;;;;;13.77;70.38;100770.56;5075724;28;20410;-42
2021/08/13 03:43:47;;;;;;;12.18;2.83;;;;;;;13.78;70.28;100777.75;5078154;28;20059;-41
2021/08/13 03:46:15;;;;;;;9.95;2.28;;;;;;;13.81;70.37;100777.84;5075997;28;20047;-43
2021/08/13 03:48:42;;;;;;;17.25;4.78;;;;;;;13.90;70.30;100775.63;5077368;28;20568;-41
2021/08/13 03:51:08;;;;;;;14.38;3.15;;;;;;;13.94;70.24;100765.38;5076048;28;20044;-40
2021/08/13 03:53:35;;;;;;;19.10;2.92;;;;;;;13.98;70.24;100777.38;5079280;28;20051;-40
2021/08/13 03:56:02;;;;;;;13.80;2.72;;;;;;;14.01;69.97;100771.09;5078435;28;20397;-41
2021/08/13 03:58:29;;;;;;;14.38;3.25;;;;;;;13.98;69.91;100771.00;5079241;28;20416;-40
2021/08/13 04:00:55;;;;;;;14.60;3.47;;;;;;;13.92;70.14;100764.97;5075989;28;20056;-41
2021/08/13 04:03:22;;;;;;;11.50;2.60;;;;;;;13.91;69.86;100766.13;5076036;28;20048;-40
2021/08/13 04:05:49;;;;;;;11.85;2.85;;;;;;;13.92;69.87;100773.31;5078055;28;20556;-46
2021/08/13 04:08:16;;;;;;;17.33;3.42;;;;;;;13.91;69.98;100770.88;5076304;28;20607;-42
2021/08/13 04:10:42;;;;;;;12.02;3.08;;;;;;;13.88;69.90;100772.41;5076934;28;20195;-44
2021/08/13 04:13:09;;;;;;;15.70;3.30;;;;;;;13.81;70.47;100763.13;5077518;28;20052;-45
2021/08/13 04:15:39;;;;;;;16.05;4.15;;;;;;;13.80;70.35;100767.88;5077627;28;20063;-41
2021/08/13 04:18:07;;;;;;;21.88;3.20;;;;;;;13.77;70.47;100763.03;5076922;28;20580;-42
2021/08/13 04:20:33;;;;;;;12.60;4.15;;;;;;;13.78;70.46;100764.66;5077542;28;20051;-40
2021/08/13 04:23:04;;;;;;;9.38;4.03;;;;;;;13.74;70.61;100749.84;5077256;28;20055;-43
2021/08/13 04:25:32;;;;;;;21.58;5.35;;;;;;;13.74;70.43;100749.06;5077806;28;20060;-43
2021/08/13 04:27:59;;;;;;;13.32;3.70;;;;;;;13.71;70.81;100761.75;5079259;28;20054;-41
2021/08/13 04:30:26;;;;;;;12.25;3.13;;;;;;;13.66;70.87;100770.34;5077212;28;20503;-42
2021/08/13 04:32:52;;;;;;;16.85;2.85;;;;;;;13.65;70.97;100782.66;5078017;28;20040;-40
2021/08/13 04:35:20;;;;;;;10.98;2.40;;;;;;;13.61;71.17;100778.22;5074487;28;20048;-42
2021/08/13 04:37:46;;;;;;;15.82;3.42;;;;;;;13.63;71.05;100781.41;5078137;28;20078;-42
2021/08/13 04:40:17;;;;;;;12.77;3.22;;;;;;;13.60;71.04;100791.31;5076396;28;20071;-41
2021/08/13 04:42:43;;;;;;;17.80;3.28;;;;;;;13.59;71.11;100781.34;5077520;28;20404;-42
2021/08/13 04:45:11;;;;;;;13.00;3.03;;;;;;;13.55;71.21;100769.34;5076291;28;20713;-44
2021/08/13 04:47:38;;;;;;;15.93;2.28;;;;;;;13.55;71.22;100797.16;5075721;28;20507;-41
2021/08/13 04:50:06;;;;;;;21.00;3.70;;;;;;;13.53;71.24;100793.91;5074702;28;20044;-44
2021/08/13 04:52:40;;;;;;;14.23;2.45;;;;;;;13.52;71.52;100802.63;5078233;28;20621;-41
2021/08/13 04:55:07;;;;;;;13.68;2.75;;;;;;;13.51;71.34;100790.69;5075349;28;20058;-48
2021/08/13 04:57:34;;;;;;;10.88;3.20;;;;;;;13.51;71.20;100789.88;5075448;28;20062;-41
2021/08/13 05:00:02;;;;;;;13.95;3.38;;;;;;;13.48;71.55;100810.06;5075462;28;20048;-40
2021/08/13 05:02:29;;;;;;;14.98;3.75;;;;;;;13.49;71.40;100804.16;5077046;28;20040;-43
2021/08/13 05:05:00;;;;;;;17.33;2.83;;;;;;;13.50;71.38;100788.28;5074546;28;20055;-43
2021/08/13 05:07:31;;;;;;;20.30;4.20;;;;;;;13.50;71.43;100789.09;5057668;28;20058;-41
2021/08/13 05:09:58;;;;;;;11.48;3.00;;;;;;;13.50;71.34;100786.31;5072216;28;20048;-42
2021/08/13 05:12:25;;;;;;;11.02;2.70;;;;;;;13.49;71.25;100773.56;5075594;28;20040;-41
2021/08/13 05:14:52;;;;;;;13.98;3.58;;;;;;;13.48;71.41;100776.69;5077070;28;20048;-43
2021/08/13 05:17:19;;;;;;;12.43;2.70;;;;;;;13.47;71.41;100775.09;5074989;28;20055;-41
2021/08/13 05:19:45;;;;;;;16.10;3.10;;;;;;;13.46;71.45;100785.41;5075131;28;20047;-42
2021/08/13 05:22:12;;;;;;;15.05;2.85;;;;;;;13.50;71.38;100788.28;5077487;28;20048;-47
2021/08/13 05:24:39;;;;;;;14.38;3.75;;;;;;;13.54;71.39;100792.75;5076797;28;20059;-44
2021/08/13 05:27:05;;;;;;;12.60;3.22;;;;;;;13.57;71.40;100799.56;5074296;28;20052;-41
2021/08/13 05:29:32;;;;;;;12.38;2.85;;;;;;;13.63;71.18;100795.34;5076157;28;20055;-41
2021/08/13 05:31:59;;;;;;;16.88;3.03;;;;;;;13.66;71.15;100798.16;5077176;28;20036;-40
2021/08/13 05:34:25;;;;;;;8.57;3.15;;;;;;;13.72;70.47;100791.16;5075071;28;20155;-44
2021/08/13 05:36:52;;;;;;;10.80;2.00;;;;;;;13.76;70.84;100808.75;5073965;28;21138;-46
2021/08/13 05:39:19;;;;;;;16.52;2.00;;;;;;;13.75;70.61;100807.13;5074839;28;20044;-49
2021/08/13 05:41:46;;;;;;;11.55;3.05;;;;;;;13.79;70.32;100813.56;5074728;28;20055;-41
2021/08/13 05:44:12;;;;;;;14.05;2.75;;;;;;;13.81;70.18;100811.25;5075574;28;20055;-41
2021/08/13 05:46:43;;;;;;;13.30;3.15;;;;;;;13.82;70.19;100815.63;5079727;28;20043;-42
2021/08/13 05:49:10;;;;;;;13.98;4.22;;;;;;;13.83;70.19;100820.03;5080850;28;20062;-43
2021/08/13 05:51:41;;;;;;;9.10;2.10;;;;;;;13.86;69.91;100819.28;5082637;28;20044;-43
2021/08/13 05:54:08;;;;;;;9.80;1.90;;;;;;;13.92;69.83;100828.97;5081910;28;20044;-43
2021/08/13 05:56:34;;;;;;;13.35;2.10;;;;;;;14.00;69.86;100832.72;5081261;28;20094;-41
2021/08/13 05:59:02;;;;;;;13.25;1.95;;;;;;;14.08;69.78;100830.88;5081158;28;20051;-44
2021/08/13 06:01:28;;;;;;;11.25;1.92;;;;;;;14.13;69.71;100827.78;5080412;28;20059;-41
2021/08/13 06:03:55;;;;;;;12.15;2.63;;;;;;;14.22;69.66;100833.91;5082620;28;20044;-45
2021/08/13 06:06:22;;;;;;;8.20;1.67;;;;;;;14.26;69.59;100827.28;5081417;28;20050;-41
2021/08/13 06:08:49;;;;;;;10.13;2.05;;;;;;;14.29;69.60;100834.09;5081619;28;20058;-44
2021/08/13 06:11:15;;;;;;;6.70;2.10;;;;;;;14.29;69.51;100828.50;5083105;28;20050;-41
2021/08/13 06:13:42;;;;;;;18.90;2.42;;;;;;;14.30;69.55;100833.69;5080553;28;20063;-44
2021/08/13 06:16:09;;;;;;;10.93;1.85;;;;;;;14.34;69.46;100829.06;5079108;28;20054;-42
2021/08/13 06:18:41;;;;;;;7.88;1.85;;;;;;;14.38;69.45;100834.66;5081816;28;20108;-41
2021/08/13 06:21:07;;;;;;;8.90;1.45;;;;;;;14.42;69.33;100836.38;5081796;28;20048;-41
2021/08/13 06:23:34;;;;;;;10.55;1.98;;;;;;;14.47;69.25;100841.66;5085020;28;20052;-48
2021/08/13 06:26:01;;;;;;;13.25;1.80;;;;;;;14.52;69.10;100846.09;5082836;28;20667;-41
2021/08/13 06:28:27;;;;;;;12.05;2.20;;;;;;;14.57;69.20;100854.16;5066084;28;20059;-43
2021/08/13 06:30:56;;;;;;;14.25;1.92;;;;;;;14.59;69.03;100840.66;5082294;28;20040;-42
2021/08/13 06:33:23;;;;;;;16.90;4.35;;;;;;;14.65;68.89;100839.19;5086776;28;20040;-41
2021/08/13 06:35:50;;;;;;;10.23;2.47;;;;;;;14.69;69.00;100850.41;5061470;28;20055;-41
2021/08/13 06:38:16;;;;;;;13.90;2.67;;;;;;;14.67;68.95;100847.97;5066580;28;20037;-41
2021/08/13 06:40:43;;;;;;;11.07;1.95;;;;;;;14.60;69.03;100843.09;5067088;28;20414;-46
2021/08/13 06:43:10;;;;;;;13.20;2.35;;;;;;;14.52;68.96;100830.19;5065954;28;20040;-41
2021/08/13 06:45:37;;;;;;;22.65;4.47;;;;;;;14.52;69.04;100834.97;5066282;28;21407;-42
2021/08/13 06:48:04;;;;;;;19.58;3.17;;;;;;;14.55;68.96;100835.03;5066172;28;20098;-43
2021/08/13 06:50:30;;;;;;;11.20;2.08;;;;;;;14.59;69.38;100841.47;5065913;28;20056;-42
2021/08/13 06:52:58;;;;;;;10.80;2.30;;;;;;;14.63;69.09;100842.34;5066248;28;20041;-42
2021/08/13 06:55:26;;;;;;;12.00;2.25;;;;;;;14.68;68.91;100851.56;5064909;28;20063;-41
2021/08/13 06:57:53;;;;;;;20.95;2.85;;;;;;;14.72;69.06;100850.44;5061819;28;20048;-45
2021/08/13 07:00:20;;;;;;;12.75;2.97;;;;;;;14.75;68.76;100849.72;5060824;28;20056;-41
2021/08/13 07:02:48;;;;;;;11.88;2.45;;;;;;;14.81;68.81;100850.22;5057473;28;20055;-49
2021/08/13 07:05:17;;;;;;;9.77;2.28;;;;;;;14.86;68.44;100861.84;5056370;28;20059;-42
2021/08/13 07:07:43;;;;;;;14.93;2.95;;;;;;;14.91;68.71;100858.75;5051820;28;20040;-46
2021/08/13 07:10:12;;;;;;;11.32;2.35;;;;;;;14.94;68.47;100860.81;5047112;28;20060;-44
2021/08/13 07:12:41;;;;;;;9.48;1.77;;;;;;;14.98;68.33;100861.69;5051737;28;20043;-43
2021/08/13 07:15:09;;;;;;;13.20;2.13;;;;;;;15.00;68.12;100873.28;5054717;28;20048;-41
2021/08/13 07:17:37;;;;;;;15.43;3.53;;;;;;;15.04;67.75;100856.59;5051480;28;20036;-42
2021/08/13 07:20:06;;;;;;;13.88;2.03;;;;;;;15.10;67.95;100863.47;5055026;28;20044;-43
2021/08/13 07:22:33;;;;;;;7.82;2.03;;;;;;;15.16;67.78;100876.75;5052661;28;20041;-40
2021/08/13 07:25:00;;;;;;;20.25;3.15;;;;;;;15.21;68.01;100887.56;5052987;28;20047;-43
2021/08/13 07:27:28;;;;;;;8.45;2.25;;;;;;;15.22;67.61;100878.00;5055941;28;20501;-41
2021/08/13 07:29:57;;;;;;;10.93;2.40;;;;;;;15.27;67.64;100893.66;5055268;28;20041;-46
2021/08/13 07:32:25;;;;;;;10.98;2.53;;;;;;;15.30;67.51;100892.91;5054839;28;20055;-45
2021/08/13 07:34:52;;;;;;;12.98;1.88;;;;;;;15.37;67.42;100892.19;5061887;28;20055;-45
2021/08/13 07:37:20;;;;;;;13.80;2.83;;;;;;;15.44;67.25;100892.31;5074922;28;20048;-41
2021/08/13 07:39:48;;;;;;;8.27;1.85;;;;;;;15.52;67.26;100888.47;5074394;28;20054;-46
2021/08/13 07:42:18;;;;;;;16.05;2.28;;;;;;;15.59;66.69;100888.59;5074631;28;20050;-40
2021/08/13 07:44:45;;;;;;;12.60;1.77;;;;;;;15.68;67.12;100880.75;5075589;28;20044;-41
2021/08/13 07:47:13;;;;;;;7.28;2.45;;;;;;;15.74;66.85;100887.63;5075810;28;20141;-42
2021/08/13 07:49:41;;;;;;;15.10;3.42;;;;;;;15.80;66.64;100886.94;5071176;28;20054;-45
2021/08/13 07:52:07;;;;;;;10.88;2.97;;;;;;;15.86;66.59;100883.81;5074445;28;20048;-42
2021/08/13 07:54:34;;;;;;;13.60;1.88;;;;;;;15.93;66.61;100887.53;5073685;28;20466;-49
2021/08/13 07:57:02;;;;;;;11.15;2.33;;;;;;;16.04;66.68;100891.28;5074192;28;20051;-48
2021/08/13 07:59:29;;;;;;;14.88;3.35;;;;;;;16.18;66.82;100894.22;5057559;28;20044;-43
2021/08/13 08:01:56;;;;;;;6.22;1.95;;;;;;;16.32;66.47;100882.44;5070346;28;20044;-42
2021/08/13 08:04:22;;;;;;;11.30;2.00;;;;;;;16.50;66.56;100894.63;5069690;28;20131;-42
2021/08/13 08:06:49;;;;;;;11.98;2.20;;;;;;;16.71;66.57;100892.09;5055511;28;20047;-42
2021/08/13 08:09:16;;;;;;;8.43;1.60;;;;;;;16.84;65.72;100903.81;5073425;28;20052;-43
2021/08/13 08:11:43;;;;;;;9.70;2.00;;;;;;;16.93;65.12;100890.31;5073094;28;20088;-41
2021/08/13 08:14:09;;;;;;;11.38;1.58;;;;;;;17.09;65.49;100899.28;5073801;28;20044;-42
2021/08/13 08:16:36;;;;;;;11.32;2.08;;;;;;;17.37;65.63;100905.13;5069982;28;20055;-42
2021/08/13 08:19:03;;;;;;;7.82;1.65;;;;;;;17.57;64.39;100909.31;5073974;28;20051;-48
2021/08/13 08:21:30;;;;;;;16.25;1.73;;;;;;;17.68;63.00;100897.38;5075362;28;20059;-43
2021/08/13 08:23:57;;;;;;;17.75;3.03;;;;;;;17.74;62.39;100912.66;5072986;28;20055;-43
2021/08/13 08:26:24;;;;;;;13.85;1.75;;;;;;;17.65;61.25;100904.56;5069647;28;20546;-40
2021/08/13 08:28:52;;;;;;;9.45;2.22;;;;;;;17.51;61.28;100910.84;5073172;28;20629;-41
2021/08/13 08:31:18;;;;;;;13.25;2.15;;;;;;;17.77;61.76;100912.66;5074333;28;20044;-41
2021/08/13 08:33:45;;;;;;;7.70;1.58;;;;;;;18.32;61.71;100921.75;5072719;28;20058;-44
2021/08/13 08:36:12;;;;;;;11.55;2.00;;;;;;;18.68;60.76;100915.16;5054979;28;20059;-46
2021/08/13 08:38:40;;;;;;;11.25;1.77;;;;;;;18.79;59.65;100923.59;5072896;28;20386;-44
2021/08/13 08:41:08;;;;;;;10.43;2.47;;;;;;;18.75;58.83;100920.78;5069315;28;20044;-43
2021/08/13 08:43:36;;;;;;;15.95;2.50;;;;;;;18.69;58.25;100925.16;5072126;28;20127;-42
2021/08/13 08:46:03;;;;;;;4.65;1.33;;;;;;;18.78;57.88;100922.78;5068534;28;20049;-45
2021/08/13 08:48:35;;;;;;;7.85;2.58;;;;;;;18.62;57.04;100913.09;5070531;28;20048;-41
2021/08/13 08:51:05;;;;;;;11.25;1.50;;;;;;;18.67;57.68;100921.94;5073210;28;20610;-49
2021/08/13 08:53:33;;;;;;;7.68;1.63;;;;;;;19.24;57.65;100922.06;5067808;28;20055;-42
2021/08/13 08:56:00;;;;;;;6.05;1.70;;;;;;;19.93;57.05;100926.09;5070136;28;20076;-45
2021/08/13 08:58:32;;;;;;;4.90;1.40;;;;;;;20.54;55.61;100912.66;5066297;28;20129;-43
2021/08/13 09:01:00;;;;;;;6.78;1.40;;;;;;;20.98;54.65;100915.63;5067806;28;20417;-42
2021/08/13 09:03:28;;;;;;;3.83;1.27;;;;;;;21.35;53.70;100915.00;5066837;28;20063;-42
2021/08/13 09:05:55;;;;;;;10.45;1.90;;;;;;;21.60;52.26;100926.06;5073126;28;20679;-44
2021/08/13 09:08:23;;;;;;;5.15;2.13;;;;;;;21.93;51.67;100925.38;5070634;28;20481;-42
2021/08/13 09:10:51;;;;;;;7.63;1.52;;;;;;;22.12;50.73;100927.59;5070681;28;20784;-44
2021/08/13 09:13:22;;;;;;;7.85;1.88;;;;;;;22.33;49.43;100929.38;5066835;28;20055;-42
2021/08/13 09:15:49;;;;;;;;;;;;;;;22.52;46.94;100925.09;5069777;28;20135;-43
2021/08/13 09:18:23;;;;;;;5.50;1.20;;;;;;;22.62;49.93;100924.16;5070987;28;19923;-44
2021/08/13 09:21:00;;;;;;;10.30;2.13;;;;;;;22.78;48.00;100915.91;5069924;28;20476;-43
2021/08/13 09:23:33;;;;;;;8.68;1.60;;;;;;;23.02;47.56;100928.88;5068357;28;20043;-46
2021/08/13 09:26:13;;;;;;;8.02;2.90;;;;;;;23.31;47.26;100921.59;5066994;28;20047;-45
2021/08/13 09:28:42;;;;;;;9.43;2.03;;;;;;;23.15;47.36;100932.72;5071685;28;20056;-49
2021/08/13 09:31:34;;;;;;;10.38;1.60;;;;;;;23.01;44.97;100930.91;5067846;28;20101;-46
2021/08/13 09:34:08;;;;;;;5.18;1.52;;;;;;;23.13;46.07;100937.19;5058159;28;20088;-46
2021/08/13 09:36:37;;;;;;;10.13;1.73;;;;;;;22.61;46.35;100928.22;5064824;28;20143;-45
2021/08/13 09:39:07;;;;;;;6.40;1.55;;;;;;;22.52;46.42;100920.28;5070319;28;20044;-52
2021/08/13 09:41:45;;;;;;;10.05;1.50;;;;;;;22.68;45.43;100928.16;5070638;28;20648;-49
2021/08/13 09:44:27;;;;;;;12.70;3.13;;;;;;;23.01;45.50;100936.56;5069267;28;20044;-50
2021/08/13 09:47:14;;;;;;;6.57;2.03;;;;;;;23.43;45.39;100945.66;5072568;28;20117;-44
2021/08/13 09:49:53;;;;;;;9.20;2.17;;;;;;;23.46;44.40;100953.25;5072754;28;20102;-44
2021/08/13 09:52:21;;;;;;;9.50;1.67;;;;;;;23.49;45.60;100947.56;5070743;28;20035;-44
2021/08/13 09:55:14;;;;;;;6.37;1.60;;;;;;;23.00;45.01;100946.28;5071510;28;20042;-43
2021/08/13 09:57:48;;;;;;;11.02;1.60;;;;;;;23.21;44.98;100941.53;5071208;28;20040;-44
2021/08/13 10:00:20;;;;;;;5.78;1.33;;;;;;;23.22;45.29;100957.25;5071333;28;20040;-42
2021/08/13 10:02:47;;;;;;;;;;;;;;;22.51;45.04;100957.34;5069305;28;20051;-44
2021/08/13 10:05:26;;;;;;;12.90;2.00;;;;;;;21.88;46.61;100959.66;5072465;28;19931;-41
2021/08/13 10:07:53;;;;;;;7.78;2.30;;;;;;;21.37;47.33;100951.19;5068008;28;20139;-42
2021/08/13 10:10:38;;;;;;;7.63;1.88;;;;;;;20.90;48.35;100967.56;5070963;28;20036;-46
2021/08/13 10:13:11;;;;;;;12.20;2.42;;;;;;;20.55;48.77;100953.63;5071591;28;20339;-42
2021/08/13 10:15:38;;;;;;;6.85;1.60;;;;;;;20.20;49.49;100968.56;5072029;28;20040;-47
2021/08/13 10:18:10;;;;;;;7.40;1.52;;;;;;;20.01;49.79;100972.63;5069735;28;20080;-42
2021/08/13 10:20:43;;;;;;;9.40;1.98;;;;;;;19.90;50.26;100971.84;5071865;28;20098;-41
2021/08/13 10:23:10;;;;;;;9.10;1.83;;;;;;;19.67;50.37;100971.44;5072245;28;20048;-45
2021/08/13 10:25:38;;;;;;;9.85;2.42;;;;;;;19.43;51.07;100980.69;5069249;28;20943;-41
2021/08/13 10:28:05;;;;;;;10.25;1.63;;;;;;;19.44;51.17;100982.28;5070217;28;20883;-42
2021/08/13 10:30:32;;;;;;;9.35;2.10;;;;;;;19.50;51.06;100986.31;5046572;28;20114;-49
2021/08/13 10:33:07;;;;;;;6.57;1.65;;;;;;;19.56;51.21;100979.09;5032698;28;20250;-50
2021/08/13 10:35:59;;;;;;;8.63;2.05;;;;;;;19.58;51.35;100982.28;5032397;28;20750;-41
2021/08/13 10:38:32;;;;;;;5.90;1.30;;;;;;;19.67;51.52;100993.91;5028608;28;20064;-50
2021/08/13 10:41:09;;;;;;;6.70;1.73;;;;;;;19.83;51.22;100977.47;5075317;28;20158;-42
2021/08/13 10:43:42;;;;;;;9.48;1.50;;;;;;;19.82;51.31;100984.31;5056848;28;20059;-42
2021/08/13 10:46:13;;;;;;;8.20;1.58;;;;;;;19.72;51.19;100985.13;5075684;28;20119;-45
2021/08/13 10:48:47;;;;;;;9.23;1.52;;;;;;;19.68;51.72;100987.09;5073940;28;20311;-41
2021/08/13 10:51:25;;;;;;;8.77;1.85;;;;;;;19.93;51.60;100992.72;5073789;28;20044;-44
2021/08/13 10:54:04;;;;;;;9.00;2.30;;;;;;;20.28;50.06;100992.69;5076131;28;20127;-46
2021/08/13 10:56:45;;;;;;;6.72;2.17;;;;;;;20.33;50.19;100988.69;5074195;28;20055;-47
2021/08/13 10:59:12;;;;;;;11.07;1.40;;;;;;;20.25;50.34;100999.16;5076879;28;20047;-43
2021/08/13 11:02:08;;;;;;;9.73;2.65;;;;;;;20.10;50.24;101011.56;5075396;28;20520;-44
2021/08/13 11:04:40;;;;;;;4.78;1.33;;;;;;;19.96;50.36;101003.94;5065613;28;20056;-42
2021/08/13 11:07:07;;;;;;;7.07;1.42;;;;;;;19.77;50.37;101004.38;5074557;28;20056;-42
2021/08/13 11:09:35;;;;;;;9.43;2.28;;;;;;;19.58;51.00;101007.56;5076772;28;20435;-42
2021/08/13 11:12:15;;;;;;;10.52;1.48;;;;;;;19.54;51.54;101003.16;5071531;28;20071;-44
2021/08/13 11:14:55;;;;;;;5.07;1.50;;;;;;;19.54;51.83;101008.78;5074042;28;20190;-42
2021/08/13 11:17:38;;;;;;;6.30;2.30;;;;;;;19.45;50.85;101006.34;5072664;28;20167;-42
2021/08/13 11:20:07;;;;;;;7.28;1.30;;;;;;;19.31;51.39;101009.91;5075402;28;20054;-42
2021/08/13 11:22:37;;;;;;;7.15;1.33;;;;;;;19.17;51.38;101009.06;5073982;28;20055;-45
2021/08/13 11:25:11;;;;;;;6.55;1.50;;;;;;;19.10;51.71;101006.25;5071100;28;20052;-46
2021/08/13 11:27:38;;;;;;;10.00;1.40;;;;;;;19.00;51.99;101012.63;5073133;28;20043;-46
2021/08/13 11:30:39;;;;;;;7.50;1.48;;;;;;;18.94;51.80;101002.97;5075820;28;20082;-42